Decoded Metar for PAQH ( in ) (IATA:) | Meteo·Mobile Aviation Weather
aviador You're here:

PAQH Decoded Metar

in
Report Time2019-07-16 21:56:00
UTC Time2019-07-16 23:00:40
Flight Rules vfr VFR
Wind190° at 07 kt
W.Decomp.*RWY 12: 2.4 kt HW 6.6 kt RCW
Visibility9999 m
Phenomena:N/A
Clouds:Few 041 Hf
Overcast 050 Hf
Expected CloudBase > 1,600 ft AGL from Temp-Dew spread
Ceiling5,000 ft
Temp16°C
Dew Point12°C (77% RH)
AAT14.1°C
QNH1006 hPa
Raw Report
PAQH 162156Z AUTO 19007KT 10SM FEW041 OVC050 16/12 A2971 RMK AO2
SLP061 P0002 T01610122 $=

Extra information for PAQH:More info

Social comments